createdAt,value
2023-05-24T00:01:25.803Z,102252.56
2023-05-24T00:03:54.438Z,102247.44
2023-05-24T00:06:21.849Z,102247.41
2023-05-24T00:08:49.165Z,102246.66
2023-05-24T00:11:16.434Z,102249.25
2023-05-24T00:13:43.804Z,102240.59
2023-05-24T00:16:11.568Z,102232.78
2023-05-24T00:18:41.102Z,102239.81
2023-05-24T00:21:08.757Z,102229.41
2023-05-24T00:23:38.653Z,102231.22
2023-05-24T00:26:06.814Z,102226.91
2023-05-24T00:28:34.574Z,102227.00
2023-05-24T00:31:02.617Z,102234.03
2023-05-24T00:33:29.991Z,102227.94
2023-05-24T00:35:57.461Z,102225.44
2023-05-24T00:38:26.677Z,102222.00
2023-05-24T00:40:56.481Z,102229.91
2023-05-24T00:43:24.475Z,102225.56
2023-05-24T00:46:26.375Z,102225.63
2023-05-24T00:48:56.066Z,102232.63
2023-05-24T00:51:26.506Z,102226.56
2023-05-24T00:53:54.773Z,102222.25
2023-05-24T00:56:23.085Z,102213.72
2023-05-24T00:58:54.903Z,102211.03
2023-05-24T01:01:30.889Z,102218.00
2023-05-24T01:03:59.870Z,102213.66
2023-05-24T01:06:29.153Z,102204.09
2023-05-24T01:09:33.725Z,102205.88
2023-05-24T01:12:43.890Z,102195.50
2023-05-24T01:15:37.267Z,102204.28
2023-05-24T01:18:22.181Z,102204.31
2023-05-24T01:21:09.979Z,102201.75
2023-05-24T01:24:25.965Z,102200.94
2023-05-24T01:27:13.209Z,102205.34
2023-05-24T01:29:42.713Z,102201.00
2023-05-24T01:32:10.754Z,102192.41
2023-05-24T01:34:43.289Z,102193.25
2023-05-24T01:37:10.719Z,102197.66
2023-05-24T01:39:40.504Z,102199.44
2023-05-24T01:43:11.219Z,102190.78
2023-05-24T01:46:47.707Z,102189.97
2023-05-24T01:49:27.300Z,102194.34
2023-05-24T01:52:11.445Z,102190.91
2023-05-24T01:54:45.956Z,102199.63
2023-05-24T01:57:14.912Z,102196.22
2023-05-24T01:59:45.640Z,102199.69
2023-05-24T02:02:16.248Z,102195.38
2023-05-24T02:04:43.892Z,102197.09
2023-05-24T02:07:11.326Z,102191.94
2023-05-24T02:09:38.772Z,102198.91
2023-05-24T02:12:08.440Z,102197.22
2023-05-24T02:14:38.027Z,102197.28
2023-05-24T02:17:06.198Z,102205.16
2023-05-24T02:19:34.753Z,102206.91
2023-05-24T02:22:02.355Z,102208.72
2023-05-24T02:24:30.934Z,102218.28
2023-05-24T02:26:58.303Z,102217.53
2023-05-24T02:29:27.432Z,102209.78
2023-05-24T02:31:56.754Z,102211.53
2023-05-24T02:34:24.638Z,102211.63
2023-05-24T02:36:54.368Z,102210.78
2023-05-24T02:39:21.701Z,102216.06
2023-05-24T02:41:49.066Z,102217.88
2023-05-24T02:44:16.916Z,102217.06
2023-05-24T02:46:44.227Z,102217.13
2023-05-24T02:49:11.688Z,102201.56
2023-05-24T02:51:39.001Z,102211.97
2023-05-24T02:54:06.643Z,102214.63
2023-05-24T02:56:34.773Z,102218.09
2023-05-24T02:59:02.877Z,102209.47
2023-05-24T03:01:34.051Z,102216.44
2023-05-24T03:04:02.475Z,102207.78
2023-05-24T03:06:31.137Z,102211.28
2023-05-24T03:08:59.248Z,102204.41
2023-05-24T03:11:27.241Z,102202.66
2023-05-24T03:13:54.702Z,102187.09
2023-05-24T03:16:22.158Z,102195.75
2023-05-24T03:18:55.316Z,102194.06
2023-05-24T03:21:25.197Z,102195.81
2023-05-24T03:23:52.617Z,102204.53
2023-05-24T03:26:20.789Z,102204.53
2023-05-24T03:28:50.559Z,102211.53
2023-05-24T03:31:22.120Z,102204.63
2023-05-24T03:33:49.596Z,102201.19
2023-05-24T03:36:16.930Z,102198.66
2023-05-24T03:38:45.048Z,102183.97
2023-05-24T03:41:12.863Z,102194.34
2023-05-24T03:43:40.443Z,102190.03
2023-05-24T03:46:13.091Z,102192.66
2023-05-24T03:48:42.013Z,102181.38
2023-05-24T03:51:09.402Z,102185.75
2023-05-24T03:53:36.910Z,102189.22
2023-05-24T03:56:04.293Z,102195.25
2023-05-24T03:58:32.166Z,102186.69
2023-05-24T04:00:59.874Z,102189.16
2023-05-24T04:03:27.706Z,102180.44
2023-05-24T04:05:56.192Z,102184.75
2023-05-24T04:08:23.534Z,102181.28
2023-05-24T04:10:51.255Z,102184.72
2023-05-24T04:13:18.593Z,102181.25
2023-05-24T04:15:46.010Z,102190.75
2023-05-24T04:18:14.622Z,102197.66
2023-05-24T04:20:42.206Z,102195.03
2023-05-24T04:23:10.745Z,102188.88
2023-05-24T04:25:38.178Z,102200.13
2023-05-24T04:28:06.220Z,102197.50
2023-05-24T04:30:33.875Z,102192.34
2023-05-24T04:33:01.853Z,102195.66
2023-05-24T04:35:30.836Z,102187.00
2023-05-24T04:37:59.771Z,102185.03
2023-05-24T04:40:27.274Z,102198.78
2023-05-24T04:42:54.747Z,102198.53
2023-05-24T04:45:23.236Z,102192.00
2023-05-24T04:47:50.789Z,102191.72
2023-05-24T04:50:19.498Z,102193.38
2023-05-24T04:52:46.976Z,102198.50
2023-05-24T04:55:15.795Z,102204.53
2023-05-24T04:57:43.101Z,102201.00
2023-05-24T05:00:11.952Z,102205.34
2023-05-24T05:02:39.453Z,102209.63
2023-05-24T05:05:08.037Z,102199.97
2023-05-24T05:07:35.350Z,102202.47
2023-05-24T05:10:02.731Z,102208.53
2023-05-24T05:12:30.040Z,102206.72
2023-05-24T05:14:57.507Z,102205.63
2023-05-24T05:17:26.181Z,102213.34
2023-05-24T05:19:53.516Z,102209.78
2023-05-24T05:22:20.849Z,102209.78
2023-05-24T05:24:48.170Z,102206.97
2023-05-24T05:27:15.576Z,102212.91
2023-05-24T05:29:42.966Z,102209.31
2023-05-24T05:32:10.457Z,102211.00
2023-05-24T05:34:38.989Z,102216.94
2023-05-24T05:37:06.361Z,102214.25
2023-05-24T05:39:33.850Z,102213.25
2023-05-24T05:42:02.390Z,102220.06
2023-05-24T05:44:29.889Z,102212.78
2023-05-24T05:46:57.239Z,102221.09
2023-05-24T05:49:25.731Z,102213.06
2023-05-24T05:51:53.376Z,102216.25
2023-05-24T05:54:20.696Z,102216.00
2023-05-24T05:56:51.134Z,102219.38
2023-05-24T05:59:19.517Z,102219.94
2023-05-24T06:01:48.869Z,102214.50
2023-05-24T06:04:17.091Z,102216.13
2023-05-24T06:06:49.599Z,102214.97
2023-05-24T06:09:17.592Z,102218.19
2023-05-24T06:11:45.073Z,102217.88
2023-05-24T06:14:13.529Z,102228.31
2023-05-24T06:16:43.564Z,102233.38
2023-05-24T06:19:11.324Z,102236.63
2023-05-24T06:21:41.023Z,102222.69
2023-05-24T06:24:09.826Z,102225.91
2023-05-24T06:26:37.629Z,102225.81
2023-05-24T06:29:07.074Z,102236.72
2023-05-24T06:31:34.833Z,102237.47
2023-05-24T06:34:04.809Z,102230.41
2023-05-24T06:36:35.910Z,102232.78
2023-05-24T06:39:05.017Z,102241.25
2023-05-24T06:41:32.315Z,102236.72
2023-05-24T06:44:00.357Z,102242.47
2023-05-24T06:46:27.739Z,102232.59
2023-05-24T06:48:58.302Z,102239.06
2023-05-24T06:51:25.804Z,102232.03
2023-05-24T06:53:53.243Z,102226.81
2023-05-24T06:56:20.583Z,102233.38
2023-05-24T06:58:48.263Z,102239.47
2023-05-24T07:01:16.635Z,102239.16
2023-05-24T07:03:44.254Z,102243.41
2023-05-24T07:06:14.415Z,102245.34
2023-05-24T07:08:42.672Z,102248.16
2023-05-24T07:11:10.745Z,102244.81
2023-05-24T07:13:38.094Z,102246.28
2023-05-24T07:16:07.184Z,102247.06
2023-05-24T07:18:34.569Z,102255.63
2023-05-24T07:21:01.915Z,102253.88
2023-05-24T07:23:29.643Z,102248.72
2023-05-24T07:25:57.248Z,102252.56
2023-05-24T07:28:24.776Z,102239.53
2023-05-24T07:30:52.510Z,102252.13
2023-05-24T07:33:20.238Z,102258.19
2023-05-24T07:35:51.528Z,102250.03
2023-05-24T07:38:19.317Z,102254.34
2023-05-24T07:40:48.025Z,102257.88
2023-05-24T07:43:17.556Z,102256.38
2023-05-24T07:45:45.092Z,102266.00
2023-05-24T07:48:13.248Z,102262.03
2023-05-24T07:50:42.346Z,102262.06
2023-05-24T07:53:09.929Z,102254.75
2023-05-24T07:55:37.433Z,102259.88
2023-05-24T07:58:04.689Z,102256.31
2023-05-24T08:00:33.838Z,102261.66
2023-05-24T08:03:01.241Z,102254.66
2023-05-24T08:05:29.054Z,102261.38
2023-05-24T08:07:57.444Z,102253.50
2023-05-24T08:10:25.284Z,102248.09
2023-05-24T08:12:54.929Z,102257.56
2023-05-24T08:15:22.516Z,102253.91
2023-05-24T08:17:50.074Z,102259.63
2023-05-24T08:20:17.864Z,102252.13
2023-05-24T08:22:45.404Z,102254.56
2023-05-24T08:25:12.744Z,102248.91
2023-05-24T08:27:40.306Z,102243.44
2023-05-24T08:30:09.246Z,102243.34
2023-05-24T08:32:36.793Z,102244.16
2023-05-24T08:35:19.314Z,102232.75
2023-05-24T08:37:48.443Z,102238.06
2023-05-24T08:40:16.751Z,102240.63
2023-05-24T08:42:46.765Z,102234.88
2023-05-24T08:45:16.382Z,102238.22
2023-05-24T08:47:47.526Z,102241.47
2023-05-24T08:50:15.617Z,102243.22
2023-05-24T08:52:45.604Z,102227.34
2023-05-24T08:55:16.309Z,102236.81
2023-05-24T08:57:46.123Z,102233.22
2023-05-24T09:00:14.761Z,102232.66
2023-05-24T09:02:45.657Z,102228.22
2023-05-24T09:05:17.250Z,102219.53
2023-05-24T09:07:46.712Z,102219.81
2023-05-24T09:10:15.943Z,102226.25
2023-05-24T09:12:55.693Z,102226.09
2023-05-24T09:15:23.999Z,102222.16
2023-05-24T09:17:51.444Z,102226.03
2023-05-24T09:20:23.294Z,102221.09
2023-05-24T09:22:55.830Z,102224.47
2023-05-24T09:25:28.022Z,102223.78
2023-05-24T09:27:56.454Z,102219.78
2023-05-24T09:30:23.886Z,102222.84
2023-05-24T09:33:01.013Z,102218.72
2023-05-24T09:35:28.862Z,102214.34
2023-05-24T09:38:00.185Z,102211.00
2023-05-24T09:40:29.799Z,102214.06
2023-05-24T09:43:10.036Z,102223.63
2023-05-24T09:45:47.454Z,102209.59
2023-05-24T09:48:17.354Z,102208.97
2023-05-24T09:50:48.093Z,102215.44
2023-05-24T09:53:19.283Z,102205.16
2023-05-24T09:55:48.861Z,102205.78
2023-05-24T09:58:17.750Z,102214.59
2023-05-24T10:00:45.449Z,102222.28
2023-05-24T10:03:15.432Z,102218.63
2023-05-24T10:05:46.945Z,102222.69
2023-05-24T10:08:16.016Z,102221.84
2023-05-24T10:10:46.012Z,102212.06
2023-05-24T10:13:16.445Z,102220.13
2023-05-24T10:15:47.066Z,102220.31
2023-05-24T10:18:23.024Z,102215.59
2023-05-24T10:20:54.999Z,102217.91
2023-05-24T10:23:26.853Z,102211.28
2023-05-24T10:26:12.020Z,102212.09
2023-05-24T10:28:48.859Z,102216.47
2023-05-24T10:31:26.785Z,102215.84
2023-05-24T10:36:46.823Z,102212.28
2023-05-24T10:39:14.477Z,102214.84
2023-05-24T10:41:42.483Z,102217.50
2023-05-24T10:41:49.890Z,102216.56
2023-05-24T10:44:18.293Z,102215.72
2023-05-24T10:47:15.732Z,102213.09
2023-05-24T10:50:04.760Z,102223.00
2023-05-24T10:52:37.016Z,102212.28
2023-05-24T10:55:09.864Z,102215.25
2023-05-24T10:57:39.463Z,102214.47
2023-05-24T11:03:09.158Z,102214.72
2023-05-24T11:05:57.130Z,102219.63
2023-05-24T11:08:43.612Z,102209.56
2023-05-24T11:11:26.749Z,102206.28
2023-05-24T11:14:01.368Z,102224.97
2023-05-24T11:16:40.416Z,102205.53
2023-05-24T11:19:35.590Z,102211.00
2023-05-24T11:22:09.787Z,102208.44
2023-05-24T11:24:38.368Z,102202.47
2023-05-24T11:27:06.559Z,102203.16
2023-05-24T11:29:45.436Z,102209.38
2023-05-24T11:32:21.068Z,102203.84
2023-05-24T11:34:49.754Z,102206.56
2023-05-24T11:37:19.058Z,102203.72
2023-05-24T11:39:54.282Z,102206.84
2023-05-24T11:42:25.010Z,102200.84
2023-05-24T11:44:53.831Z,102204.34
2023-05-24T11:47:22.624Z,102209.81
2023-05-24T11:49:52.841Z,102211.28
2023-05-24T11:52:21.334Z,102201.91
2023-05-24T11:54:50.823Z,102207.78
2023-05-24T11:57:29.686Z,102190.38
2023-05-24T12:00:02.647Z,102193.31
2023-05-24T12:02:50.066Z,102207.81
2023-05-24T12:05:19.761Z,102196.44
2023-05-24T12:07:48.943Z,102206.47
2023-05-24T12:10:17.947Z,102193.03
2023-05-24T12:12:46.836Z,102195.69
2023-05-24T12:15:15.791Z,102191.13
2023-05-24T12:17:50.290Z,102200.09
2023-05-24T12:20:22.306Z,102197.91
2023-05-24T12:22:52.859Z,102191.38
2023-05-24T12:25:23.166Z,102192.25
2023-05-24T12:27:56.515Z,102201.16
2023-05-24T12:30:29.144Z,102204.50
2023-05-24T12:32:57.749Z,102197.78
2023-05-24T12:35:25.372Z,102191.81
2023-05-24T12:38:00.204Z,102204.59
2023-05-24T12:40:33.582Z,102191.78
2023-05-24T12:43:01.131Z,102198.75
2023-05-24T12:45:28.542Z,102185.91
2023-05-24T12:47:59.832Z,102195.72
2023-05-24T12:50:27.618Z,102189.13
2023-05-24T12:52:58.832Z,102193.59
2023-05-24T12:55:28.447Z,102193.03
2023-05-24T12:57:57.503Z,102189.50
2023-05-24T13:00:28.916Z,102189.03
2023-05-24T13:02:58.958Z,102190.19
2023-05-24T13:05:28.517Z,102191.69
2023-05-24T13:07:57.502Z,102184.91
2023-05-24T13:10:28.917Z,102183.34
2023-05-24T13:12:57.479Z,102177.38
2023-05-24T13:15:27.259Z,102180.00
2023-05-24T13:17:56.271Z,102176.38
2023-05-24T13:20:24.473Z,102187.44
2023-05-24T13:22:53.581Z,102183.56
2023-05-24T13:25:24.637Z,102178.06
2023-05-24T13:27:52.046Z,102181.34
2023-05-24T13:30:27.363Z,102171.00
2023-05-24T13:32:56.047Z,102169.88
2023-05-24T13:35:23.537Z,102173.31
2023-05-24T13:37:57.959Z,102167.63
2023-05-24T13:40:26.258Z,102160.88
2023-05-24T13:42:57.181Z,102164.53
2023-05-24T13:45:25.516Z,102167.13
2023-05-24T13:47:53.841Z,102168.78
2023-05-24T13:50:23.785Z,102171.34
2023-05-24T13:52:52.549Z,102173.94
2023-05-24T13:55:20.117Z,102176.63
2023-05-24T13:57:51.676Z,102173.66
2023-05-24T14:00:22.120Z,102170.22
2023-05-24T14:02:50.993Z,102182.06
2023-05-24T14:05:27.493Z,102170.41
2023-05-24T14:08:06.164Z,102166.81
2023-05-24T14:10:37.626Z,102164.19
2023-05-24T14:15:38.206Z,102152.47
2023-05-24T14:18:08.718Z,102168.28
2023-05-24T14:20:38.378Z,102158.81
2023-05-24T14:23:07.926Z,102164.78
2023-05-24T14:25:37.258Z,102168.00
2023-05-24T14:28:05.885Z,102165.28
2023-05-24T14:30:33.336Z,102157.50
2023-05-24T14:33:04.078Z,102164.06
2023-05-24T14:35:38.014Z,102164.47
2023-05-24T14:38:11.952Z,102175.31
2023-05-24T14:40:42.734Z,102177.56
2023-05-24T14:43:13.885Z,102170.25
2023-05-24T14:45:42.264Z,102173.59
2023-05-24T14:48:12.469Z,102172.25
2023-05-24T14:50:41.338Z,102174.47
2023-05-24T14:53:12.038Z,102175.50
2023-05-24T14:55:43.492Z,102180.13
2023-05-24T14:58:12.254Z,102172.34
2023-05-24T15:00:43.956Z,102176.53
2023-05-24T15:03:13.009Z,102164.44
2023-05-24T15:05:42.603Z,102173.47
2023-05-24T15:08:11.498Z,102167.41
2023-05-24T15:10:39.466Z,102165.44
2023-05-24T15:13:06.883Z,102170.91
2023-05-24T15:15:34.283Z,102174.34
2023-05-24T15:18:01.832Z,102181.06
2023-05-24T15:20:29.303Z,102175.00
2023-05-24T15:22:56.776Z,102174.75
2023-05-24T15:25:24.722Z,102172.28
2023-05-24T15:27:52.125Z,102181.84
2023-05-24T15:30:21.183Z,102172.78
2023-05-24T15:32:48.503Z,102181.50
2023-05-24T15:35:17.891Z,102174.97
2023-05-24T15:37:46.696Z,102178.59
2023-05-24T15:40:15.110Z,102177.53
2023-05-24T15:42:42.549Z,102180.09
2023-05-24T15:45:11.378Z,102187.00
2023-05-24T15:47:40.430Z,102178.59
2023-05-24T15:50:09.348Z,102182.06
2023-05-24T15:52:37.087Z,102175.16
2023-05-24T15:55:05.257Z,102178.31
2023-05-24T15:57:32.782Z,102179.53
2023-05-24T16:00:01.241Z,102181.66
2023-05-24T16:02:30.413Z,102178.84
2023-05-24T16:04:58.201Z,102184.91
2023-05-24T16:07:25.533Z,102176.88
2023-05-24T16:09:52.909Z,102181.16
2023-05-24T16:12:21.231Z,102189.09
2023-05-24T16:14:48.726Z,102183.03
2023-05-24T16:17:17.199Z,102175.38
2023-05-24T16:19:49.546Z,102181.50
2023-05-24T16:22:17.355Z,102168.94
2023-05-24T16:24:44.921Z,102163.47
2023-05-24T16:27:12.453Z,102168.94
2023-05-24T16:29:39.965Z,102165.28
2023-05-24T16:32:08.901Z,102161.81
2023-05-24T16:34:52.100Z,102171.34
2023-05-24T16:37:19.649Z,102165.19
2023-05-24T16:39:47.019Z,102157.09
2023-05-24T16:42:14.370Z,102164.03
2023-05-24T16:44:41.904Z,102145.41
2023-05-24T16:47:09.520Z,102157.50
2023-05-24T16:49:36.821Z,102147.81
2023-05-24T16:52:04.578Z,102156.56
2023-05-24T16:54:31.968Z,102142.78
2023-05-24T16:56:59.509Z,102141.16
2023-05-24T16:59:27.024Z,102144.47
2023-05-24T17:01:54.458Z,102143.63
2023-05-24T17:04:21.813Z,102144.53
2023-05-24T17:06:49.140Z,102141.75
2023-05-24T17:09:16.742Z,102128.47
2023-05-24T17:11:44.015Z,102144.03
2023-05-24T17:14:13.524Z,102131.41
2023-05-24T17:16:40.944Z,102137.97
2023-05-24T17:19:09.562Z,102138.81
2023-05-24T17:21:36.861Z,102145.81
2023-05-24T17:24:04.261Z,102147.84
2023-05-24T17:26:31.663Z,102148.84
2023-05-24T17:28:59.093Z,102153.47
2023-05-24T17:31:26.471Z,102147.97
2023-05-24T17:33:54.177Z,102144.88
2023-05-24T17:36:21.536Z,102148.69
2023-05-24T17:38:48.794Z,102151.81
2023-05-24T17:41:16.855Z,102152.22
2023-05-24T17:43:44.311Z,102157.72
2023-05-24T17:46:13.467Z,102157.13
2023-05-24T17:48:42.729Z,102162.56
2023-05-24T17:51:10.932Z,102160.06
2023-05-24T17:53:40.972Z,102152.91
2023-05-24T17:56:09.320Z,102161.63
2023-05-24T17:58:37.422Z,102159.69
2023-05-24T18:01:07.731Z,102176.19
2023-05-24T18:03:37.501Z,102179.72
2023-05-24T18:06:07.461Z,102170.69
2023-05-24T18:08:38.346Z,102179.56
2023-05-24T18:11:10.166Z,102180.72
2023-05-24T18:13:41.772Z,102181.19
2023-05-24T18:16:11.417Z,102183.50
2023-05-24T18:18:39.627Z,102178.84
2023-05-24T18:21:10.131Z,102184.47
2023-05-24T18:23:38.140Z,102183.81
2023-05-24T18:26:11.964Z,102188.47
2023-05-24T18:28:42.125Z,102192.22
2023-05-24T18:31:16.122Z,102193.56
2023-05-24T18:33:43.589Z,102195.50
2023-05-24T18:36:12.521Z,102188.03
2023-05-24T18:38:40.546Z,102190.97
2023-05-24T18:41:12.141Z,102193.81
2023-05-24T18:43:40.360Z,102186.50
2023-05-24T18:46:08.958Z,102192.66
2023-05-24T18:48:36.335Z,102199.94
2023-05-24T18:51:03.766Z,102192.41
2023-05-24T18:53:32.644Z,102196.09
2023-05-24T18:55:59.958Z,102198.16
2023-05-24T18:58:27.367Z,102199.19
2023-05-24T19:00:54.797Z,102195.13
2023-05-24T19:03:22.578Z,102194.50
2023-05-24T19:05:50.179Z,102193.84
2023-05-24T19:08:18.400Z,102196.75
2023-05-24T19:10:45.666Z,102195.31
2023-05-24T19:13:12.930Z,102199.81
2023-05-24T19:15:40.219Z,102201.66
2023-05-24T19:18:08.250Z,102206.28
2023-05-24T19:20:35.709Z,102204.84
2023-05-24T19:23:03.173Z,102207.66
2023-05-24T19:25:31.329Z,102208.78
2023-05-24T19:28:00.476Z,102206.41
2023-05-24T19:30:29.089Z,102211.84
2023-05-24T19:32:56.568Z,102213.03
2023-05-24T19:35:23.982Z,102220.25
2023-05-24T19:37:52.206Z,102214.47
2023-05-24T19:40:20.572Z,102221.53
2023-05-24T19:42:48.273Z,102229.63
2023-05-24T19:45:16.372Z,102228.97
2023-05-24T19:47:45.243Z,102234.41
2023-05-24T19:50:12.714Z,102237.16
2023-05-24T19:52:40.076Z,102233.88
2023-05-24T19:55:08.558Z,102239.19
2023-05-24T19:57:35.934Z,102235.88
2023-05-24T20:00:05.275Z,102236.97
2023-05-24T20:02:38.577Z,102240.63
2023-05-24T20:05:07.170Z,102239.97
2023-05-24T20:07:34.652Z,102244.47
2023-05-24T20:10:02.036Z,102240.31
2023-05-24T20:12:30.829Z,102244.75
2023-05-24T20:14:58.204Z,102251.91
2023-05-24T20:17:25.575Z,102255.50
2023-05-24T20:19:52.951Z,102254.75
2023-05-24T20:22:21.006Z,102261.88
2023-05-24T20:24:48.294Z,102260.25
2023-05-24T20:27:15.635Z,102255.16
2023-05-24T20:29:43.207Z,102256.22
2023-05-24T20:32:10.833Z,102264.16
2023-05-24T20:34:38.124Z,102258.22
2023-05-24T20:37:06.890Z,102266.97
2023-05-24T20:39:34.266Z,102267.13
2023-05-24T20:42:02.241Z,102262.84
2023-05-24T20:44:29.579Z,102263.00
2023-05-24T20:46:56.945Z,102264.03
2023-05-24T20:49:24.301Z,102270.38
2023-05-24T20:51:51.548Z,102271.25
2023-05-24T20:54:18.894Z,102275.84
2023-05-24T20:56:46.337Z,102282.78
2023-05-24T20:59:13.673Z,102277.63
2023-05-24T21:01:41.135Z,102281.25
2023-05-24T21:04:09.893Z,102278.63
2023-05-24T21:06:37.521Z,102277.00
2023-05-24T21:09:04.975Z,102288.41
2023-05-24T21:11:32.593Z,102289.44
2023-05-24T21:13:59.896Z,102296.47
2023-05-24T21:16:27.280Z,102289.66
2023-05-24T21:18:54.965Z,102291.44
2023-05-24T21:21:24.004Z,102301.19
2023-05-24T21:23:51.297Z,102289.03
2023-05-24T21:26:18.790Z,102290.09
2023-05-24T21:28:46.352Z,102294.53
2023-05-24T21:31:13.814Z,102296.34
2023-05-24T21:33:43.373Z,102303.44
2023-05-24T21:36:11.185Z,102316.66
2023-05-24T21:38:38.637Z,102308.94
2023-05-24T21:41:06.167Z,102308.97
2023-05-24T21:43:33.408Z,102311.66
2023-05-24T21:46:00.795Z,102310.03
2023-05-24T21:48:28.087Z,102318.78
2023-05-24T21:50:55.403Z,102318.00
2023-05-24T21:53:22.766Z,102317.19
2023-05-24T21:55:50.615Z,102321.59
2023-05-24T21:58:18.024Z,102322.69
2023-05-24T22:00:45.347Z,102327.03
2023-05-24T22:03:14.090Z,102323.72
2023-05-24T22:05:41.555Z,102330.78
2023-05-24T22:08:08.861Z,102328.31
2023-05-24T22:10:36.104Z,102329.28
2023-05-24T22:13:03.404Z,102326.75
2023-05-24T22:15:31.270Z,102332.91
2023-05-24T22:18:01.446Z,102327.81
2023-05-24T22:20:30.550Z,102330.56
2023-05-24T22:22:58.910Z,102335.03
2023-05-24T22:25:26.304Z,102338.63
2023-05-24T22:27:55.910Z,102345.72
2023-05-24T22:30:23.882Z,102339.75
2023-05-24T22:32:51.536Z,102343.31
2023-05-24T22:35:19.244Z,102335.63
2023-05-24T22:37:46.493Z,102330.44
2023-05-24T22:40:14.213Z,102337.56
2023-05-24T22:42:41.640Z,102342.03
2023-05-24T22:45:10.090Z,102342.16
2023-05-24T22:47:39.796Z,102347.44
2023-05-24T22:50:08.853Z,102352.72
2023-05-24T22:52:36.110Z,102346.66
2023-05-24T22:55:03.881Z,102341.44
2023-05-24T22:57:31.318Z,102337.13
2023-05-24T22:59:58.652Z,102339.78
2023-05-24T23:02:27.555Z,102341.56
2023-05-24T23:04:56.179Z,102341.78
2023-05-24T23:07:23.596Z,102343.63
2023-05-24T23:09:51.123Z,102346.34
2023-05-24T23:12:20.941Z,102353.41
2023-05-24T23:14:48.431Z,102352.56
2023-05-24T23:17:15.991Z,102355.16
2023-05-24T23:19:43.832Z,102346.50
2023-05-24T23:22:23.721Z,102350.94
2023-05-24T23:24:51.159Z,102349.25
2023-05-24T23:27:18.693Z,102345.88
2023-05-24T23:29:46.262Z,102337.25
2023-05-24T23:32:13.738Z,102333.81
2023-05-24T23:34:41.731Z,102334.72
2023-05-24T23:37:09.090Z,102342.56
2023-05-24T23:39:39.387Z,102340.91
2023-05-24T23:42:06.882Z,102337.44
2023-05-24T23:44:34.351Z,102344.50
2023-05-24T23:47:02.480Z,102343.72
2023-05-24T23:49:30.018Z,102351.63
2023-05-24T23:51:57.519Z,102349.97
2023-05-24T23:54:24.929Z,102350.94
2023-05-24T23:56:52.304Z,102346.66
2023-05-24T23:59:19.679Z,102348.44
